Time;durP1;ratioP1;P1;durP2;ratioP2;P2;SDS_P1;SDS_P2;PMS_P1;PMS_P2;Temp;Humidity;BMP_temperature;BMP_pressure;BME280_temperature;BME280_humidity;BME280_pressure;Samples;Min_cycle;Max_cycle;Signal;HPM_P1;HPM_P2
2024/01/05 00:02:25;;;;;;;12.05;3.70;;;;;;;;;;4803665;29;20645;-72
2024/01/05 00:04:52;;;;;;;14.65;3.90;;;;;;;;;;4797137;29;20127;-73
2024/01/05 00:07:18;;;;;;;15.48;3.70;;;;;;;;;;4787080;29;20107;-73
2024/01/05 00:09:44;;;;;;;11.95;3.90;;;;;;;;;;4794395;29;20135;-72
2024/01/05 00:12:11;;;;;;;16.25;4.60;;;;;;;;;;4792258;29;20062;-74
2024/01/05 00:14:37;;;;;;;10.02;3.55;;;;;;;;;;4792131;29;20055;-76
2024/01/05 00:17:05;;;;;;;11.57;3.83;;;;;;;;;;4797982;29;20911;-74
2024/01/05 00:19:31;;;;;;;15.65;4.07;;;;;;;;;;4791515;29;20050;-74
2024/01/05 00:21:58;;;;;;;11.95;4.07;;;;;;;;;;4795735;29;20050;-75
2024/01/05 00:24:25;;;;;;;10.27;4.13;;;;;;;;;;4786457;29;20055;-74
2024/01/05 00:26:52;;;;;;;11.48;3.75;;;;;;;;;;4793903;29;20146;-74
2024/01/05 00:29:18;;;;;;;14.38;4.07;;;;;;;;;;4796746;29;20059;-75
2024/01/05 00:31:45;;;;;;;12.65;4.05;;;;;;;;;;4791547;29;20061;-74
2024/01/05 00:34:11;;;;;;;12.05;4.30;;;;;;;;;;4790290;29;20132;-75
2024/01/05 00:36:38;;;;;;;13.77;4.32;;;;;;;;;;4782281;29;20062;-74
2024/01/05 00:39:05;;;;;;;8.40;3.55;;;;;;;;;;4785864;29;20051;-73
2024/01/05 00:41:32;;;;;;;11.88;4.45;;;;;;;;;;4789259;29;20078;-74
2024/01/05 00:43:58;;;;;;;10.05;3.83;;;;;;;;;;4778526;29;20112;-74
2024/01/05 00:46:25;;;;;;;12.07;3.67;;;;;;;;;;4793354;29;20090;-74
2024/01/05 00:48:51;;;;;;;11.90;4.22;;;;;;;;;;4782296;29;20148;-75
2024/01/05 00:51:18;;;;;;;9.50;3.63;;;;;;;;;;4800208;29;20055;-75
2024/01/05 00:53:44;;;;;;;11.18;4.43;;;;;;;;;;4781719;29;20066;-75
2024/01/05 00:56:10;;;;;;;12.18;3.88;;;;;;;;;;4784193;29;20051;-75
2024/01/05 00:58:37;;;;;;;13.23;4.47;;;;;;;;;;4794058;29;20571;-76
2024/01/05 01:01:05;;;;;;;14.35;5.00;;;;;;;;;;4790496;29;20055;-75
2024/01/05 01:03:32;;;;;;;;;;;;;;;;;;4791663;29;20073;-75
2024/01/05 01:05:58;;;;;;;13.25;4.10;;;;;;;;;;4783845;29;19940;-75
2024/01/05 01:08:24;;;;;;;11.10;4.18;;;;;;;;;;4810123;29;20099;-75
2024/01/05 01:10:51;;;;;;;9.20;3.83;;;;;;;;;;4796648;29;20070;-75
2024/01/05 01:13:17;;;;;;;12.35;4.30;;;;;;;;;;4789218;29;20173;-75
2024/01/05 01:15:44;;;;;;;11.27;4.60;;;;;;;;;;4795169;29;20055;-75
2024/01/05 01:18:10;;;;;;;16.90;4.82;;;;;;;;;;4785737;29;20544;-76
2024/01/05 01:20:37;;;;;;;11.35;3.72;;;;;;;;;;4791593;29;20495;-77
2024/01/05 01:23:03;;;;;;;13.32;4.13;;;;;;;;;;4790455;29;20529;-77
2024/01/05 01:25:29;;;;;;;12.23;3.83;;;;;;;;;;4783830;29;20058;-77
2024/01/05 01:27:57;;;;;;;13.10;4.72;;;;;;;;;;4793424;29;20135;-77
2024/01/05 01:30:23;;;;;;;12.25;4.18;;;;;;;;;;4790364;29;20457;-77
2024/01/05 01:32:50;;;;;;;13.75;4.40;;;;;;;;;;4790620;29;20066;-77
2024/01/05 01:35:16;;;;;;;13.82;3.65;;;;;;;;;;4784105;29;20128;-77
2024/01/05 01:37:43;;;;;;;13.27;4.15;;;;;;;;;;4792587;29;20093;-77
2024/01/05 01:40:10;;;;;;;12.48;4.28;;;;;;;;;;4793029;29;20137;-77
2024/01/05 01:42:36;;;;;;;10.02;3.40;;;;;;;;;;4783586;29;20532;-77
2024/01/05 01:45:03;;;;;;;15.98;4.53;;;;;;;;;;4806964;29;20146;-77
2024/01/05 01:47:30;;;;;;;15.82;4.72;;;;;;;;;;4796123;29;20055;-77
2024/01/05 01:49:57;;;;;;;11.35;3.75;;;;;;;;;;4788819;29;20142;-75
2024/01/05 01:52:24;;;;;;;12.82;3.40;;;;;;;;;;4791696;29;20147;-75
2024/01/05 01:54:50;;;;;;;13.27;3.65;;;;;;;;;;4793469;29;20091;-75
2024/01/05 01:57:17;;;;;;;8.93;3.28;;;;;;;;;;4794298;29;20412;-75
2024/01/05 01:59:44;;;;;;;14.03;3.30;;;;;;;;;;4792072;29;20063;-75
2024/01/05 02:02:12;;;;;;;11.43;3.50;;;;;;;;;;4793444;29;20066;-75
2024/01/05 02:04:39;;;;;;;11.05;3.45;;;;;;;;;;4790391;29;20137;-76
2024/01/05 02:07:06;;;;;;;12.85;3.22;;;;;;;;;;4790524;29;20063;-75
2024/01/05 02:09:32;;;;;;;12.98;3.08;;;;;;;;;;4800605;29;20131;-75
2024/01/05 02:11:59;;;;;;;12.90;3.13;;;;;;;;;;4793858;29;20046;-75
2024/01/05 02:14:25;;;;;;;9.90;2.90;;;;;;;;;;4795695;29;20054;-75
2024/01/05 02:16:52;;;;;;;8.90;3.08;;;;;;;;;;4785371;29;20047;-75
2024/01/05 02:19:18;;;;;;;13.00;3.55;;;;;;;;;;4796312;29;20047;-75
2024/01/05 02:21:47;;;;;;;7.80;2.75;;;;;;;;;;4797433;29;20104;-75
2024/01/05 02:24:13;;;;;;;12.15;2.92;;;;;;;;;;4795059;29;20116;-75
2024/01/05 02:26:40;;;;;;;12.10;2.63;;;;;;;;;;4810629;29;20059;-75
2024/01/05 02:29:08;;;;;;;10.95;2.60;;;;;;;;;;4789623;29;20146;-77
2024/01/05 02:31:34;;;;;;;10.05;2.42;;;;;;;;;;4793416;29;20498;-74
2024/01/05 02:34:01;;;;;;;11.90;2.58;;;;;;;;;;4804137;29;20058;-75
2024/01/05 02:36:28;;;;;;;9.15;2.42;;;;;;;;;;4794167;29;20112;-75
2024/01/05 02:38:55;;;;;;;12.57;3.15;;;;;;;;;;4799824;29;20058;-75
2024/01/05 02:41:21;;;;;;;10.05;3.42;;;;;;;;;;4789604;29;20046;-75
2024/01/05 02:43:47;;;;;;;12.85;2.85;;;;;;;;;;4794140;29;20154;-75
2024/01/05 02:46:14;;;;;;;10.00;2.50;;;;;;;;;;4787221;29;20054;-75
2024/01/05 02:48:40;;;;;;;10.35;2.40;;;;;;;;;;4792001;29;20657;-75
2024/01/05 02:51:07;;;;;;;8.48;2.60;;;;;;;;;;4794574;29;20103;-75
2024/01/05 02:53:33;;;;;;;10.45;2.15;;;;;;;;;;4788094;29;20145;-74
2024/01/05 02:56:00;;;;;;;11.73;2.40;;;;;;;;;;4799342;29;20166;-75
2024/01/05 02:58:26;;;;;;;8.88;2.25;;;;;;;;;;4807644;29;20070;-75
2024/01/05 03:00:53;;;;;;;8.93;2.33;;;;;;;;;;4794607;29;20548;-74
2024/01/05 03:03:20;;;;;;;12.98;2.95;;;;;;;;;;4790923;29;20058;-75
2024/01/05 03:05:47;;;;;;;11.43;3.05;;;;;;;;;;4796741;29;20073;-75
2024/01/05 03:08:14;;;;;;;10.77;2.40;;;;;;;;;;4804103;29;20057;-75
2024/01/05 03:10:40;;;;;;;9.07;2.10;;;;;;;;;;4789684;29;20533;-75
2024/01/05 03:13:06;;;;;;;11.85;2.70;;;;;;;;;;4789063;29;20116;-74
2024/01/05 03:15:33;;;;;;;10.55;2.50;;;;;;;;;;4789778;29;20077;-74
2024/01/05 03:17:59;;;;;;;9.65;2.05;;;;;;;;;;4797653;29;20086;-74
2024/01/05 03:20:26;;;;;;;14.82;2.28;;;;;;;;;;4796666;29;20055;-75
2024/01/05 03:22:52;;;;;;;9.43;2.10;;;;;;;;;;4791574;29;20066;-75
2024/01/05 03:25:19;;;;;;;14.32;2.50;;;;;;;;;;4794163;29;20416;-74
2024/01/05 03:27:45;;;;;;;8.77;2.10;;;;;;;;;;4787923;29;20089;-75
2024/01/05 03:30:12;;;;;;;9.18;2.00;;;;;;;;;;4805961;29;20546;-75
2024/01/05 03:32:38;;;;;;;10.25;2.08;;;;;;;;;;4797107;29;20054;-75
2024/01/05 03:35:05;;;;;;;11.50;2.40;;;;;;;;;;4796956;29;20512;-74
2024/01/05 03:37:31;;;;;;;14.18;2.60;;;;;;;;;;4785019;29;20484;-75
2024/01/05 03:39:58;;;;;;;9.40;2.72;;;;;;;;;;4798082;29;20175;-74
2024/01/05 03:42:24;;;;;;;17.70;2.92;;;;;;;;;;4789089;29;20142;-76
2024/01/05 03:44:51;;;;;;;7.05;2.33;;;;;;;;;;4784660;29;20169;-75
2024/01/05 03:47:17;;;;;;;9.90;2.00;;;;;;;;;;4802263;29;20054;-75
2024/01/05 03:49:43;;;;;;;9.07;2.15;;;;;;;;;;4798190;29;20548;-75
2024/01/05 03:52:10;;;;;;;6.30;1.90;;;;;;;;;;4805083;29;20054;-75
2024/01/05 03:54:36;;;;;;;14.10;2.05;;;;;;;;;;4811755;29;20058;-75
2024/01/05 03:57:03;;;;;;;11.57;2.38;;;;;;;;;;4786429;29;20439;-75
2024/01/05 03:59:30;;;;;;;9.10;2.10;;;;;;;;;;4794929;29;20672;-75
2024/01/05 04:01:56;;;;;;;11.30;2.20;;;;;;;;;;4806360;29;20594;-75
2024/01/05 04:04:23;;;;;;;7.38;2.00;;;;;;;;;;4791589;29;20504;-75
2024/01/05 04:06:50;;;;;;;12.45;2.85;;;;;;;;;;4798750;29;20147;-78
2024/01/05 04:09:17;;;;;;;7.38;2.10;;;;;;;;;;4790174;29;20062;-75
2024/01/05 04:11:44;;;;;;;8.70;2.38;;;;;;;;;;4793166;29;20063;-72
2024/01/05 04:14:10;;;;;;;16.77;3.00;;;;;;;;;;4781109;29;20055;-75
2024/01/05 04:16:36;;;;;;;9.10;2.03;;;;;;;;;;4798527;29;20111;-75
2024/01/05 04:19:03;;;;;;;9.88;2.15;;;;;;;;;;4797916;29;20059;-74
2024/01/05 04:21:30;;;;;;;11.25;2.83;;;;;;;;;;4804277;29;20059;-75
2024/01/05 04:23:57;;;;;;;9.20;2.30;;;;;;;;;;4793202;29;20446;-75
2024/01/05 04:26:24;;;;;;;13.38;2.30;;;;;;;;;;4788070;29;20328;-74
2024/01/05 04:28:51;;;;;;;9.57;2.42;;;;;;;;;;4795246;29;20051;-73
2024/01/05 04:31:17;;;;;;;7.97;2.20;;;;;;;;;;4797328;29;20079;-74
2024/01/05 04:33:43;;;;;;;6.07;2.00;;;;;;;;;;4792376;29;20081;-74
2024/01/05 04:36:10;;;;;;;10.82;2.33;;;;;;;;;;4797740;29;20063;-73
2024/01/05 04:38:37;;;;;;;7.35;1.80;;;;;;;;;;4801676;29;20059;-75
2024/01/05 04:41:04;;;;;;;12.30;2.38;;;;;;;;;;4803573;29;20085;-73
2024/01/05 04:43:30;;;;;;;12.40;2.15;;;;;;;;;;4789617;29;20851;-74
2024/01/05 04:45:56;;;;;;;10.48;2.03;;;;;;;;;;4797117;29;20055;-73
2024/01/05 04:48:23;;;;;;;9.68;1.90;;;;;;;;;;4797119;29;20127;-74
2024/01/05 04:50:51;;;;;;;8.50;2.17;;;;;;;;;;4791784;29;20058;-74
2024/01/05 04:53:17;;;;;;;9.33;2.03;;;;;;;;;;4792718;29;20590;-73
2024/01/05 04:55:43;;;;;;;10.38;1.75;;;;;;;;;;4774112;29;20116;-74
2024/01/05 04:58:10;;;;;;;11.70;1.98;;;;;;;;;;4793671;29;20119;-74
2024/01/05 05:00:36;;;;;;;10.00;1.83;;;;;;;;;;4795244;29;20062;-73
2024/01/05 05:03:03;;;;;;;10.90;1.92;;;;;;;;;;4803172;29;20150;-73
2024/01/05 05:05:30;;;;;;;7.30;2.28;;;;;;;;;;4798513;29;20446;-74
2024/01/05 05:07:57;;;;;;;7.68;2.25;;;;;;;;;;4776259;29;20099;-73
2024/01/05 05:10:23;;;;;;;6.15;1.63;;;;;;;;;;4789142;29;20047;-74
2024/01/05 05:12:50;;;;;;;11.70;2.70;;;;;;;;;;4791188;29;20106;-73
2024/01/05 05:15:16;;;;;;;4.90;1.75;;;;;;;;;;4787057;29;20051;-73
2024/01/05 05:17:43;;;;;;;8.02;1.65;;;;;;;;;;4783781;29;20051;-73
2024/01/05 05:20:09;;;;;;;9.82;2.10;;;;;;;;;;4780144;29;20142;-74
2024/01/05 05:22:36;;;;;;;4.25;1.55;;;;;;;;;;4790468;29;20138;-74
2024/01/05 05:25:02;;;;;;;6.78;1.60;;;;;;;;;;4782443;29;20711;-74
2024/01/05 05:27:33;;;;;;;6.18;2.00;;;;;;;;;;4796720;29;20074;-74
2024/01/05 05:30:01;;;;;;;11.82;2.70;;;;;;;;;;4800575;29;20051;-73
2024/01/05 05:32:28;;;;;;;8.30;1.80;;;;;;;;;;4782686;29;20404;-74
2024/01/05 05:34:55;;;;;;;8.00;2.33;;;;;;;;;;4796956;29;20069;-73
2024/01/05 05:37:21;;;;;;;6.40;1.67;;;;;;;;;;4791942;29;20130;-75
2024/01/05 05:39:48;;;;;;;7.15;1.40;;;;;;;;;;4815458;29;20055;-75
2024/01/05 05:42:14;;;;;;;4.90;1.63;;;;;;;;;;4808712;29;20154;-75
2024/01/05 05:44:41;;;;;;;7.60;2.08;;;;;;;;;;4792357;29;20640;-75
2024/01/05 05:47:07;;;;;;;8.32;1.88;;;;;;;;;;4781146;29;20104;-75
2024/01/05 05:49:33;;;;;;;6.53;1.60;;;;;;;;;;4787014;29;20077;-75
2024/01/05 05:52:00;;;;;;;8.38;1.45;;;;;;;;;;4789335;29;20047;-75
2024/01/05 05:54:26;;;;;;;6.38;1.45;;;;;;;;;;4787417;29;20059;-75
2024/01/05 05:56:53;;;;;;;6.10;1.38;;;;;;;;;;4787510;29;20086;-75
2024/01/05 05:59:19;;;;;;;7.30;1.58;;;;;;;;;;4788126;29;20090;-75
2024/01/05 06:01:46;;;;;;;6.85;1.58;;;;;;;;;;4777809;29;20066;-75
2024/01/05 06:04:13;;;;;;;6.80;1.50;;;;;;;;;;4786625;29;20747;-75
2024/01/05 06:06:40;;;;;;;8.07;1.65;;;;;;;;;;4786037;29;20715;-75
2024/01/05 06:09:07;;;;;;;11.98;2.33;;;;;;;;;;4787907;29;20059;-75
2024/01/05 06:11:34;;;;;;;5.72;1.50;;;;;;;;;;4785854;29;20055;-75
2024/01/05 06:14:00;;;;;;;5.32;1.60;;;;;;;;;;4779861;29;20122;-75
2024/01/05 06:16:26;;;;;;;7.00;2.00;;;;;;;;;;4789613;29;20055;-74
2024/01/05 06:18:53;;;;;;;9.05;1.65;;;;;;;;;;4777813;29;20059;-74
2024/01/05 06:21:19;;;;;;;5.80;1.42;;;;;;;;;;4807173;29;20489;-77
2024/01/05 06:23:46;;;;;;;6.90;1.30;;;;;;;;;;4780714;29;20101;-75
2024/01/05 06:26:12;;;;;;;8.60;1.60;;;;;;;;;;4787476;29;20063;-75
2024/01/05 06:28:39;;;;;;;7.40;1.60;;;;;;;;;;4785934;29;20133;-75
2024/01/05 06:31:05;;;;;;;5.10;1.20;;;;;;;;;;4797595;29;20055;-75
2024/01/05 06:33:32;;;;;;;6.53;1.63;;;;;;;;;;4787693;29;20678;-75
2024/01/05 06:35:59;;;;;;;7.15;1.63;;;;;;;;;;4794056;29;20059;-76
2024/01/05 06:38:25;;;;;;;10.02;1.83;;;;;;;;;;4799371;29;20055;-76
2024/01/05 06:40:51;;;;;;;6.93;1.58;;;;;;;;;;4815670;29;20059;-76
2024/01/05 06:43:18;;;;;;;8.82;1.45;;;;;;;;;;4791610;29;20055;-76
2024/01/05 06:45:44;;;;;;;7.70;1.60;;;;;;;;;;4794776;29;20244;-75
2024/01/05 06:48:11;;;;;;;6.68;1.30;;;;;;;;;;4803761;29;20047;-74
2024/01/05 06:50:37;;;;;;;6.40;1.70;;;;;;;;;;4797557;29;20059;-74
2024/01/05 06:53:04;;;;;;;4.75;1.00;;;;;;;;;;4788458;29;20071;-74
2024/01/05 06:55:30;;;;;;;6.93;1.38;;;;;;;;;;4797974;29;20063;-75
2024/01/05 06:57:57;;;;;;;8.05;1.45;;;;;;;;;;4793410;29;20127;-74
2024/01/05 07:00:23;;;;;;;5.25;1.40;;;;;;;;;;4788924;29;20055;-74
2024/01/05 07:02:50;;;;;;;7.88;1.63;;;;;;;;;;4787698;29;20141;-74
2024/01/05 07:05:17;;;;;;;6.90;1.65;;;;;;;;;;4805694;29;20112;-74
2024/01/05 07:07:43;;;;;;;5.40;1.45;;;;;;;;;;4796290;29;20082;-74
2024/01/05 07:10:09;;;;;;;6.40;1.13;;;;;;;;;;4798205;29;20139;-75
2024/01/05 07:12:36;;;;;;;5.38;1.40;;;;;;;;;;4789686;29;20476;-75
2024/01/05 07:15:06;;;;;;;6.13;1.30;;;;;;;;;;4808789;29;20050;-75
2024/01/05 07:17:32;;;;;;;6.38;1.42;;;;;;;;;;4790000;29;20150;-75
2024/01/05 07:19:58;;;;;;;8.02;1.58;;;;;;;;;;4796161;29;20464;-74
2024/01/05 07:22:25;;;;;;;2.35;1.27;;;;;;;;;;4807079;29;20190;-74
2024/01/05 07:24:51;;;;;;;4.82;1.42;;;;;;;;;;4795364;29;20138;-74
2024/01/05 07:27:18;;;;;;;8.38;1.65;;;;;;;;;;4792923;29;20074;-74
2024/01/05 07:29:45;;;;;;;7.80;1.70;;;;;;;;;;4788863;29;20054;-74
2024/01/05 07:32:11;;;;;;;5.88;1.35;;;;;;;;;;4793390;29;20050;-75
2024/01/05 07:34:37;;;;;;;6.43;1.33;;;;;;;;;;4804418;29;20055;-75
2024/01/05 07:37:05;;;;;;;6.45;1.98;;;;;;;;;;4786095;29;20062;-75
2024/01/05 07:39:31;;;;;;;8.50;1.40;;;;;;;;;;4789566;29;20117;-76
2024/01/05 07:41:58;;;;;;;5.45;1.45;;;;;;;;;;4792709;29;20412;-75
2024/01/05 07:44:25;;;;;;;5.18;1.40;;;;;;;;;;4792263;29;20123;-75
2024/01/05 07:46:51;;;;;;;4.03;1.10;;;;;;;;;;4794375;29;20435;-75
2024/01/05 07:49:18;;;;;;;8.68;1.00;;;;;;;;;;4797402;29;20055;-75
2024/01/05 07:51:44;;;;;;;6.45;1.20;;;;;;;;;;4790584;29;20071;-75
2024/01/05 07:54:11;;;;;;;4.05;0.88;;;;;;;;;;4811774;29;20063;-75
2024/01/05 07:56:39;;;;;;;1.35;0.70;;;;;;;;;;4807088;29;20122;-75
2024/01/05 07:59:05;;;;;;;3.10;0.73;;;;;;;;;;4789921;29;20680;-75
2024/01/05 08:01:32;;;;;;;2.15;0.50;;;;;;;;;;4811829;29;20056;-75
2024/01/05 08:03:58;;;;;;;0.65;0.50;;;;;;;;;;4791659;29;20454;-75
2024/01/05 08:06:25;;;;;;;0.52;0.40;;;;;;;;;;4798606;29;20806;-75
2024/01/05 08:08:51;;;;;;;0.70;0.40;;;;;;;;;;4787494;29;20051;-75
2024/01/05 08:11:18;;;;;;;1.48;0.40;;;;;;;;;;4804522;29;20513;-75
2024/01/05 08:13:46;;;;;;;3.60;0.40;;;;;;;;;;4790210;29;20094;-75
2024/01/05 08:16:12;;;;;;;1.80;0.50;;;;;;;;;;4791498;29;20460;-75
2024/01/05 08:18:40;;;;;;;1.55;0.50;;;;;;;;;;4794756;29;20316;-74
2024/01/05 08:21:06;;;;;;;1.15;0.50;;;;;;;;;;4792548;29;20057;-75
2024/01/05 08:23:33;;;;;;;1.85;0.60;;;;;;;;;;4789884;29;20085;-75
2024/01/05 08:26:00;;;;;;;0.50;0.35;;;;;;;;;;4788386;29;20047;-75
2024/01/05 08:28:26;;;;;;;0.40;0.40;;;;;;;;;;4786262;29;20058;-75
2024/01/05 08:30:53;;;;;;;0.80;0.35;;;;;;;;;;4797050;29;20485;-74
2024/01/05 08:33:23;;;;;;;1.38;0.40;;;;;;;;;;4788900;29;20470;-75
2024/01/05 08:35:49;;;;;;;2.08;0.40;;;;;;;;;;4796139;29;20898;-74
2024/01/05 08:38:16;;;;;;;3.65;0.60;;;;;;;;;;4786657;29;20060;-76
2024/01/05 08:40:42;;;;;;;1.67;0.40;;;;;;;;;;4792211;29;20132;-75
2024/01/05 08:43:10;;;;;;;0.73;0.40;;;;;;;;;;4792885;29;20505;-73
2024/01/05 08:45:36;;;;;;;0.80;0.40;;;;;;;;;;4806166;29;20069;-75
2024/01/05 08:48:04;;;;;;;2.92;0.63;;;;;;;;;;4793488;29;20053;-75
2024/01/05 08:50:31;;;;;;;1.67;0.50;;;;;;;;;;4795775;29;20054;-75
2024/01/05 08:52:57;;;;;;;0.25;0.25;;;;;;;;;;4804722;29;20177;-75
2024/01/05 08:55:24;;;;;;;0.60;0.40;;;;;;;;;;4793371;29;20114;-75
2024/01/05 08:57:50;;;;;;;0.47;0.47;;;;;;;;;;4776571;29;20062;-75
2024/01/05 09:00:18;;;;;;;3.45;0.47;;;;;;;;;;4797995;29;20051;-75
2024/01/05 09:02:45;;;;;;;0.75;0.50;;;;;;;;;;4809404;29;20062;-75
2024/01/05 09:05:12;;;;;;;0.60;0.60;;;;;;;;;;4798414;29;20058;-76
2024/01/05 09:07:38;;;;;;;0.90;0.50;;;;;;;;;;4789739;29;20059;-75
2024/01/05 09:10:08;;;;;;;0.45;0.30;;;;;;;;;;4814693;29;20111;-76
2024/01/05 09:12:34;;;;;;;0.60;0.43;;;;;;;;;;4800154;29;20181;-75
2024/01/05 09:15:01;;;;;;;3.30;0.60;;;;;;;;;;4793941;29;20065;-75
2024/01/05 09:17:29;;;;;;;0.65;0.47;;;;;;;;;;4798457;29;20058;-75
2024/01/05 09:19:55;;;;;;;1.77;0.50;;;;;;;;;;4789590;29;20350;-76
2024/01/05 09:22:22;;;;;;;1.20;0.40;;;;;;;;;;4794745;29;20070;-75
2024/01/05 09:24:49;;;;;;;1.38;0.63;;;;;;;;;;4798560;29;20050;-75
2024/01/05 09:27:15;;;;;;;0.65;0.50;;;;;;;;;;4794985;29;20099;-76
2024/01/05 09:29:42;;;;;;;2.47;0.60;;;;;;;;;;4798877;29;20137;-75
2024/01/05 09:32:08;;;;;;;0.40;0.40;;;;;;;;;;4808323;29;20055;-75
2024/01/05 09:34:35;;;;;;;0.70;0.50;;;;;;;;;;4797493;29;20063;-75
2024/01/05 09:37:02;;;;;;;2.83;0.60;;;;;;;;;;4797687;29;20063;-75
2024/01/05 09:39:28;;;;;;;1.77;0.38;;;;;;;;;;4805153;29;20785;-75
2024/01/05 09:41:55;;;;;;;0.90;0.55;;;;;;;;;;4800009;29;20417;-75
2024/01/05 09:44:22;;;;;;;0.52;0.38;;;;;;;;;;4793976;29;20145;-76
2024/01/05 09:46:49;;;;;;;0.57;0.55;;;;;;;;;;4798253;29;20105;-75
2024/01/05 09:49:16;;;;;;;0.52;0.50;;;;;;;;;;4790717;29;20111;-75
2024/01/05 09:51:44;;;;;;;1.20;0.55;;;;;;;;;;4794853;29;20075;-74
2024/01/05 09:54:12;;;;;;;1.95;0.40;;;;;;;;;;4797108;29;20054;-75
2024/01/05 09:56:39;;;;;;;1.48;0.60;;;;;;;;;;4811333;29;20286;-75
2024/01/05 09:59:06;;;;;;;0.40;0.40;;;;;;;;;;4800353;29;20131;-75
2024/01/05 10:01:34;;;;;;;0.68;0.40;;;;;;;;;;4807886;29;20055;-74
2024/01/05 10:04:01;;;;;;;0.32;0.30;;;;;;;;;;4794142;29;20054;-75
2024/01/05 10:06:30;;;;;;;1.70;0.50;;;;;;;;;;4805545;29;20057;-74
2024/01/05 10:08:57;;;;;;;0.45;0.40;;;;;;;;;;4797085;29;20066;-74
2024/01/05 10:11:27;;;;;;;0.20;0.20;;;;;;;;;;4800231;29;20054;-74
2024/01/05 10:14:03;;;;;;;0.30;0.30;;;;;;;;;;4794299;29;20673;-74
2024/01/05 10:16:39;;;;;;;0.40;0.40;;;;;;;;;;4794205;29;20082;-75
2024/01/05 10:19:15;;;;;;;0.30;0.30;;;;;;;;;;4788631;29;20051;-75
2024/01/05 10:21:43;;;;;;;0.82;0.43;;;;;;;;;;4803788;29;20112;-76
2024/01/05 10:24:14;;;;;;;0.43;0.43;;;;;;;;;;4796422;29;20059;-75
2024/01/05 10:26:41;;;;;;;0.68;0.57;;;;;;;;;;4807311;29;20059;-74
2024/01/05 10:29:17;;;;;;;0.80;0.60;;;;;;;;;;4793604;29;20063;-75
2024/01/05 10:31:43;;;;;;;1.58;0.60;;;;;;;;;;4798385;29;20501;-75
2024/01/05 10:34:10;;;;;;;3.20;0.77;;;;;;;;;;4795016;29;20059;-74
2024/01/05 10:36:37;;;;;;;1.85;0.75;;;;;;;;;;4797453;29;20119;-74
2024/01/05 10:39:03;;;;;;;1.10;0.70;;;;;;;;;;4803110;29;20086;-76
2024/01/05 10:41:30;;;;;;;1.10;0.70;;;;;;;;;;4787237;29;20497;-76
2024/01/05 10:43:58;;;;;;;3.03;0.90;;;;;;;;;;4794073;29;20055;-74
2024/01/05 10:46:24;;;;;;;3.38;1.17;;;;;;;;;;4804423;29;20712;-75
2024/01/05 10:48:51;;;;;;;1.13;0.70;;;;;;;;;;4800689;29;20392;-76
2024/01/05 10:51:23;;;;;;;3.42;1.17;;;;;;;;;;4795263;29;20078;-75
2024/01/05 10:53:50;;;;;;;3.30;1.20;;;;;;;;;;4789704;29;20078;-75
2024/01/05 10:56:20;;;;;;;2.58;0.95;;;;;;;;;;4794364;29;20153;-76
2024/01/05 10:58:49;;;;;;;1.58;0.98;;;;;;;;;;4793738;29;20067;-74
2024/01/05 11:01:17;;;;;;;1.05;0.80;;;;;;;;;;4783347;29;20417;-76
2024/01/05 11:03:44;;;;;;;2.83;1.15;;;;;;;;;;4793609;29;20615;-74
2024/01/05 11:06:11;;;;;;;1.65;0.93;;;;;;;;;;4801594;29;20104;-74
2024/01/05 11:08:37;;;;;;;1.42;1.00;;;;;;;;;;4807788;29;20561;-74
2024/01/05 11:11:23;;;;;;;2.60;1.20;;;;;;;;;;4804680;29;20462;-74
2024/01/05 11:13:50;;;;;;;2.80;1.10;;;;;;;;;;4797201;29;20347;-76
2024/01/05 11:16:35;;;;;;;3.58;1.13;;;;;;;;;;4788057;29;20703;-74
2024/01/05 11:19:01;;;;;;;1.58;0.98;;;;;;;;;;4803049;29;20062;-75
2024/01/05 11:21:47;;;;;;;2.35;1.17;;;;;;;;;;4812881;29;20065;-74
2024/01/05 11:24:14;;;;;;;2.40;1.23;;;;;;;;;;4802199;29;20065;-75
2024/01/05 11:26:44;;;;;;;2.28;1.10;;;;;;;;;;4811317;29;20051;-76
2024/01/05 11:29:15;;;;;;;1.55;1.13;;;;;;;;;;4788957;29;20047;-73
2024/01/05 11:31:44;;;;;;;4.90;1.30;;;;;;;;;;4806196;29;20386;-76
2024/01/05 11:34:34;;;;;;;4.25;1.10;;;;;;;;;;4797210;29;20061;-76
2024/01/05 11:37:01;;;;;;;1.55;0.85;;;;;;;;;;4796641;29;20051;-76
2024/01/05 11:39:39;;;;;;;3.40;1.30;;;;;;;;;;4812320;29;20523;-76
2024/01/05 11:42:08;;;;;;;2.03;1.08;;;;;;;;;;4794293;29;20074;-75
2024/01/05 11:44:36;;;;;;;2.20;1.02;;;;;;;;;;4788642;29;20055;-76
2024/01/05 11:47:02;;;;;;;2.15;1.17;;;;;;;;;;4796582;29;20100;-76
2024/01/05 11:49:45;;;;;;;3.38;1.30;;;;;;;;;;4817332;29;20057;-76
2024/01/05 11:52:11;;;;;;;2.42;1.30;;;;;;;;;;4798055;29;20057;-76
2024/01/05 11:54:38;;;;;;;2.33;1.40;;;;;;;;;;4808956;29;20107;-78
2024/01/05 11:57:07;;;;;;;4.13;1.40;;;;;;;;;;4797269;29;20057;-76
2024/01/05 11:59:34;;;;;;;1.80;1.20;;;;;;;;;;4789490;29;20043;-75
2024/01/05 12:02:00;;;;;;;2.58;1.30;;;;;;;;;;4802378;29;20397;-77
2024/01/05 12:04:27;;;;;;;2.30;1.30;;;;;;;;;;4805933;29;20431;-76
2024/01/05 12:06:54;;;;;;;1.52;1.10;;;;;;;;;;4813740;29;20058;-77
2024/01/05 12:09:21;;;;;;;1.45;1.23;;;;;;;;;;4817981;29;20415;-78
2024/01/05 12:11:48;;;;;;;2.22;1.33;;;;;;;;;;4805138;29;20433;-78
2024/01/05 12:14:27;;;;;;;2.38;1.33;;;;;;;;;;4814518;29;20057;-75
2024/01/05 12:17:10;;;;;;;2.85;1.00;;;;;;;;;;4791849;29;20063;-80
2024/01/05 12:19:37;;;;;;;2.08;1.13;;;;;;;;;;4812659;29;20059;-75
2024/01/05 12:22:04;;;;;;;2.03;1.10;;;;;;;;;;4795601;29;20080;-76
2024/01/05 12:24:30;;;;;;;2.10;1.30;;;;;;;;;;4812109;29;20150;-79
2024/01/05 12:26:57;;;;;;;4.35;1.40;;;;;;;;;;4793233;29;20133;-76
2024/01/05 12:29:24;;;;;;;1.70;1.25;;;;;;;;;;4791542;29;20186;-77
2024/01/05 12:31:51;;;;;;;1.75;1.25;;;;;;;;;;4812913;29;20062;-73
2024/01/05 12:34:17;;;;;;;1.85;1.35;;;;;;;;;;4792921;29;20055;-73
2024/01/05 12:36:44;;;;;;;3.25;1.23;;;;;;;;;;4801009;29;20084;-75
2024/01/05 12:39:11;;;;;;;2.25;1.20;;;;;;;;;;4798229;29;20055;-80
2024/01/05 12:41:41;;;;;;;;;;;;;;;;;;4786627;29;20047;-72
2024/01/05 12:44:09;;;;;;;2.10;1.60;;;;;;;;;;4807454;29;19933;-78
2024/01/05 12:46:46;;;;;;;4.15;1.50;;;;;;;;;;4792865;29;20051;-74
2024/01/05 12:49:24;;;;;;;4.93;2.90;;;;;;;;;;4797102;29;20450;-75
2024/01/05 12:51:52;;;;;;;;;;;;;;;;;;4789448;29;20059;-73
2024/01/05 12:54:20;;;;;;;3.08;1.60;;;;;;;;;;4787675;29;19932;-74
2024/01/05 12:56:48;;;;;;;3.13;1.63;;;;;;;;;;4796567;29;20078;-75
2024/01/05 12:59:19;;;;;;;3.22;1.83;;;;;;;;;;4791752;29;20069;-74
2024/01/05 13:01:45;;;;;;;2.72;1.58;;;;;;;;;;4798299;29;20147;-74
2024/01/05 13:04:12;;;;;;;3.38;1.75;;;;;;;;;;4808496;29;20054;-76
2024/01/05 13:06:40;;;;;;;4.55;1.70;;;;;;;;;;4788273;29;20055;-75
2024/01/05 13:09:07;;;;;;;3.05;1.50;;;;;;;;;;4800508;29;20448;-76
2024/01/05 13:11:33;;;;;;;3.20;1.60;;;;;;;;;;4777881;29;20568;-75
2024/01/05 13:14:00;;;;;;;2.53;1.75;;;;;;;;;;4803124;29;20082;-74
2024/01/05 13:16:27;;;;;;;2.17;1.45;;;;;;;;;;4789115;29;20140;-73
2024/01/05 13:18:53;;;;;;;3.58;2.00;;;;;;;;;;4786217;29;20114;-74
2024/01/05 13:21:20;;;;;;;4.00;1.95;;;;;;;;;;4798583;29;20051;-74
2024/01/05 13:23:52;;;;;;;3.60;1.80;;;;;;;;;;4780192;29;20059;-75
2024/01/05 13:26:18;;;;;;;2.28;1.55;;;;;;;;;;4787028;29;20481;-74
2024/01/05 13:28:45;;;;;;;4.38;1.65;;;;;;;;;;4792087;29;20050;-74
2024/01/05 13:31:11;;;;;;;3.80;2.08;;;;;;;;;;4793216;29;20151;-74
2024/01/05 13:33:38;;;;;;;2.85;1.73;;;;;;;;;;4785533;29;20146;-73
2024/01/05 13:36:05;;;;;;;2.38;1.52;;;;;;;;;;4779155;29;20059;-77
2024/01/05 13:38:32;;;;;;;4.78;1.67;;;;;;;;;;4789714;29;20058;-74
2024/01/05 13:40:59;;;;;;;5.75;2.40;;;;;;;;;;4789345;29;20417;-75
2024/01/05 13:43:25;;;;;;;3.28;1.73;;;;;;;;;;4791684;29;20145;-74
2024/01/05 13:45:54;;;;;;;4.40;2.58;;;;;;;;;;4792707;29;20473;-77
2024/01/05 13:48:21;;;;;;;3.17;2.10;;;;;;;;;;4796192;29;20430;-77
2024/01/05 13:50:48;;;;;;;4.47;2.60;;;;;;;;;;4796664;29;20047;-77
2024/01/05 13:53:15;;;;;;;5.22;2.65;;;;;;;;;;4795462;29;20050;-78
2024/01/05 13:55:41;;;;;;;4.93;2.88;;;;;;;;;;4801468;29;20412;-79
2024/01/05 13:58:08;;;;;;;5.22;2.95;;;;;;;;;;4786667;29;20061;-77
2024/01/05 14:00:34;;;;;;;3.65;2.88;;;;;;;;;;4799431;29;20462;-77
2024/01/05 14:03:02;;;;;;;6.53;2.90;;;;;;;;;;4796522;29;20200;-77
2024/01/05 14:05:29;;;;;;;4.07;3.10;;;;;;;;;;4797909;29;20094;-78
2024/01/05 14:07:56;;;;;;;4.50;2.67;;;;;;;;;;4812553;29;20058;-78
2024/01/05 14:10:23;;;;;;;6.55;3.45;;;;;;;;;;4799422;29;20070;-76
2024/01/05 14:12:49;;;;;;;6.63;4.13;;;;;;;;;;4801680;29;20087;-78
2024/01/05 14:15:16;;;;;;;5.03;3.95;;;;;;;;;;4794966;29;20558;-76
2024/01/05 14:17:42;;;;;;;4.00;3.47;;;;;;;;;;4800848;29;20063;-76
2024/01/05 14:20:09;;;;;;;5.65;4.10;;;;;;;;;;4811750;29;20058;-77
2024/01/05 14:22:36;;;;;;;5.53;4.07;;;;;;;;;;4792826;29;20059;-75
2024/01/05 14:25:04;;;;;;;6.43;4.32;;;;;;;;;;4800230;29;20579;-74
2024/01/05 14:27:30;;;;;;;7.05;4.65;;;;;;;;;;4805490;29;20063;-74
2024/01/05 14:29:57;;;;;;;5.38;4.28;;;;;;;;;;4796263;29;20622;-76
2024/01/05 14:32:23;;;;;;;6.05;4.90;;;;;;;;;;4797293;29;20112;-74
2024/01/05 14:34:50;;;;;;;6.45;4.25;;;;;;;;;;4788218;29;20116;-73
2024/01/05 14:37:17;;;;;;;7.20;4.82;;;;;;;;;;4806489;29;20134;-71
2024/01/05 14:39:43;;;;;;;7.50;5.30;;;;;;;;;;4808091;29;20401;-75
2024/01/05 14:42:09;;;;;;;5.55;4.47;;;;;;;;;;4801400;29;20057;-75